sensor_id;sensor_type;location;lat;lon;timestamp;P1;durP1;ratioP1;P2;durP2;ratioP2
26774;SDS011;14362;51.902;7.626;2023-07-24T00:00:10;5.70;;;5.07;;
26774;SDS011;14362;51.902;7.626;2023-07-24T00:04:13;6.00;;;5.40;;
26774;SDS011;14362;51.902;7.626;2023-07-24T00:08:14;5.75;;;5.07;;
26774;SDS011;14362;51.902;7.626;2023-07-24T00:12:15;5.80;;;5.10;;
26774;SDS011;14362;51.902;7.626;2023-07-24T00:16:18;6.32;;;5.53;;
26774;SDS011;14362;51.902;7.626;2023-07-24T00:20:20;8.38;;;6.35;;
26774;SDS011;14362;51.902;7.626;2023-07-24T00:24:21;8.45;;;5.80;;
26774;SDS011;14362;51.902;7.626;2023-07-24T00:28:23;5.95;;;5.00;;
26774;SDS011;14362;51.902;7.626;2023-07-24T00:32:26;4.85;;;4.35;;
26774;SDS011;14362;51.902;7.626;2023-07-24T00:36:27;5.53;;;4.80;;
26774;SDS011;14362;51.902;7.626;2023-07-24T00:40:28;6.25;;;4.10;;
26774;SDS011;14362;51.902;7.626;2023-07-24T00:44:30;4.38;;;3.97;;
26774;SDS011;14362;51.902;7.626;2023-07-24T00:48:33;6.53;;;4.68;;
26774;SDS011;14362;51.902;7.626;2023-07-24T00:52:34;4.60;;;4.10;;
26774;SDS011;14362;51.902;7.626;2023-07-24T00:56:36;4.97;;;4.15;;
26774;SDS011;14362;51.902;7.626;2023-07-24T01:00:37;5.93;;;4.07;;
26774;SDS011;14362;51.902;7.626;2023-07-24T01:04:41;5.72;;;3.72;;
26774;SDS011;14362;51.902;7.626;2023-07-24T01:08:42;5.32;;;3.80;;
26774;SDS011;14362;51.902;7.626;2023-07-24T01:12:45;7.13;;;3.95;;
26774;SDS011;14362;51.902;7.626;2023-07-24T01:16:57;6.65;;;4.30;;
26774;SDS011;14362;51.902;7.626;2023-07-24T01:21:02;5.45;;;4.07;;
26774;SDS011;14362;51.902;7.626;2023-07-24T01:25:09;4.97;;;4.05;;
26774;SDS011;14362;51.902;7.626;2023-07-24T01:29:19;6.50;;;3.63;;
26774;SDS011;14362;51.902;7.626;2023-07-24T01:33:21;4.47;;;3.45;;
26774;SDS011;14362;51.902;7.626;2023-07-24T01:37:23;5.53;;;3.85;;
26774;SDS011;14362;51.902;7.626;2023-07-24T01:41:26;5.30;;;4.53;;
26774;SDS011;14362;51.902;7.626;2023-07-24T01:45:30;6.68;;;4.20;;
26774;SDS011;14362;51.902;7.626;2023-07-24T01:49:31;4.90;;;3.97;;
26774;SDS011;14362;51.902;7.626;2023-07-24T01:53:33;4.90;;;3.50;;
26774;SDS011;14362;51.902;7.626;2023-07-24T01:57:34;7.50;;;4.15;;
26774;SDS011;14362;51.902;7.626;2023-07-24T02:01:37;4.25;;;3.38;;
26774;SDS011;14362;51.902;7.626;2023-07-24T02:05:38;5.13;;;4.22;;
26774;SDS011;14362;51.902;7.626;2023-07-24T02:09:40;6.15;;;4.35;;
26774;SDS011;14362;51.902;7.626;2023-07-24T02:13:42;4.60;;;4.00;;
26774;SDS011;14362;51.902;7.626;2023-07-24T02:17:45;8.35;;;4.00;;
26774;SDS011;14362;51.902;7.626;2023-07-24T02:21:47;5.60;;;4.03;;
26774;SDS011;14362;51.902;7.626;2023-07-24T02:25:50;4.65;;;4.13;;
26774;SDS011;14362;51.902;7.626;2023-07-24T02:29:52;5.30;;;4.28;;
26774;SDS011;14362;51.902;7.626;2023-07-24T02:33:55;5.60;;;3.85;;
26774;SDS011;14362;51.902;7.626;2023-07-24T02:37:56;5.43;;;3.90;;
26774;SDS011;14362;51.902;7.626;2023-07-24T02:41:58;9.23;;;4.60;;
26774;SDS011;14362;51.902;7.626;2023-07-24T02:46:00;4.82;;;3.97;;
26774;SDS011;14362;51.902;7.626;2023-07-24T02:50:04;7.10;;;3.90;;
26774;SDS011;14362;51.902;7.626;2023-07-24T02:54:06;8.95;;;4.07;;
26774;SDS011;14362;51.902;7.626;2023-07-24T02:58:07;5.40;;;4.20;;
26774;SDS011;14362;51.902;7.626;2023-07-24T03:02:09;5.22;;;4.00;;
26774;SDS011;14362;51.902;7.626;2023-07-24T03:06:11;5.72;;;4.68;;
26774;SDS011;14362;51.902;7.626;2023-07-24T03:10:13;6.32;;;4.30;;
26774;SDS011;14362;51.902;7.626;2023-07-24T03:14:14;7.22;;;4.72;;
26774;SDS011;14362;51.902;7.626;2023-07-24T03:18:16;7.15;;;4.90;;
26774;SDS011;14362;51.902;7.626;2023-07-24T03:22:18;11.63;;;4.70;;
26774;SDS011;14362;51.902;7.626;2023-07-24T03:26:20;8.63;;;5.00;;
26774;SDS011;14362;51.902;7.626;2023-07-24T03:30:21;7.57;;;5.35;;
26774;SDS011;14362;51.902;7.626;2023-07-24T03:34:23;7.15;;;5.43;;
26774;SDS011;14362;51.902;7.626;2023-07-24T03:38:25;6.65;;;5.15;;
26774;SDS011;14362;51.902;7.626;2023-07-24T03:42:27;9.20;;;5.72;;
26774;SDS011;14362;51.902;7.626;2023-07-24T03:46:31;6.88;;;5.40;;
26774;SDS011;14362;51.902;7.626;2023-07-24T03:50:32;8.43;;;5.60;;
26774;SDS011;14362;51.902;7.626;2023-07-24T03:54:35;7.03;;;5.32;;
26774;SDS011;14362;51.902;7.626;2023-07-24T03:58:37;6.25;;;5.40;;
26774;SDS011;14362;51.902;7.626;2023-07-24T04:02:39;7.72;;;5.35;;
26774;SDS011;14362;51.902;7.626;2023-07-24T04:06:41;6.97;;;5.40;;
26774;SDS011;14362;51.902;7.626;2023-07-24T04:10:44;10.40;;;5.82;;
26774;SDS011;14362;51.902;7.626;2023-07-24T04:14:45;6.35;;;5.43;;
26774;SDS011;14362;51.902;7.626;2023-07-24T04:18:48;8.75;;;5.63;;
26774;SDS011;14362;51.902;7.626;2023-07-24T04:22:50;7.35;;;5.30;;
26774;SDS011;14362;51.902;7.626;2023-07-24T04:26:52;8.15;;;5.50;;
26774;SDS011;14362;51.902;7.626;2023-07-24T04:30:54;10.90;;;6.35;;
26774;SDS011;14362;51.902;7.626;2023-07-24T04:34:55;10.15;;;5.63;;
26774;SDS011;14362;51.902;7.626;2023-07-24T04:38:57;10.82;;;7.03;;
26774;SDS011;14362;51.902;7.626;2023-07-24T04:43:00;12.30;;;6.40;;
26774;SDS011;14362;51.902;7.626;2023-07-24T04:47:02;9.20;;;6.00;;
26774;SDS011;14362;51.902;7.626;2023-07-24T04:51:03;10.68;;;6.45;;
26774;SDS011;14362;51.902;7.626;2023-07-24T04:55:05;8.95;;;6.22;;
26774;SDS011;14362;51.902;7.626;2023-07-24T04:59:08;7.72;;;5.80;;
26774;SDS011;14362;51.902;7.626;2023-07-24T05:03:10;8.43;;;6.10;;
26774;SDS011;14362;51.902;7.626;2023-07-24T05:07:11;7.97;;;5.93;;
26774;SDS011;14362;51.902;7.626;2023-07-24T05:11:13;6.95;;;5.45;;
26774;SDS011;14362;51.902;7.626;2023-07-24T05:15:16;8.60;;;5.47;;
26774;SDS011;14362;51.902;7.626;2023-07-24T05:19:17;9.60;;;5.60;;
26774;SDS011;14362;51.902;7.626;2023-07-24T05:23:19;6.85;;;5.20;;
26774;SDS011;14362;51.902;7.626;2023-07-24T05:27:20;8.02;;;6.18;;
26774;SDS011;14362;51.902;7.626;2023-07-24T05:31:23;8.77;;;6.10;;
26774;SDS011;14362;51.902;7.626;2023-07-24T05:35:24;7.53;;;4.95;;
26774;SDS011;14362;51.902;7.626;2023-07-24T05:39:26;6.28;;;5.45;;
26774;SDS011;14362;51.902;7.626;2023-07-24T05:43:28;7.15;;;5.93;;
26774;SDS011;14362;51.902;7.626;2023-07-24T05:47:31;9.40;;;5.90;;
26774;SDS011;14362;51.902;7.626;2023-07-24T05:51:32;8.82;;;6.90;;
26774;SDS011;14362;51.902;7.626;2023-07-24T05:55:34;8.98;;;6.72;;
26774;SDS011;14362;51.902;7.626;2023-07-24T05:59:35;11.43;;;6.82;;
26774;SDS011;14362;51.902;7.626;2023-07-24T06:03:38;9.80;;;7.70;;
26774;SDS011;14362;51.902;7.626;2023-07-24T06:07:39;10.45;;;7.45;;
26774;SDS011;14362;51.902;7.626;2023-07-24T06:11:41;9.25;;;7.05;;
26774;SDS011;14362;51.902;7.626;2023-07-24T06:15:42;11.07;;;7.45;;
26774;SDS011;14362;51.902;7.626;2023-07-24T06:19:45;9.02;;;8.02;;
26774;SDS011;14362;51.902;7.626;2023-07-24T06:23:47;11.45;;;9.10;;
26774;SDS011;14362;51.902;7.626;2023-07-24T06:27:48;10.23;;;9.20;;
26774;SDS011;14362;51.902;7.626;2023-07-24T06:31:50;10.85;;;9.80;;
26774;SDS011;14362;51.902;7.626;2023-07-24T06:35:52;12.68;;;10.65;;
26774;SDS011;14362;51.902;7.626;2023-07-24T06:39:54;12.95;;;11.45;;
26774;SDS011;14362;51.902;7.626;2023-07-24T06:43:55;13.05;;;11.70;;
26774;SDS011;14362;51.902;7.626;2023-07-24T06:47:57;12.35;;;11.02;;
26774;SDS011;14362;51.902;7.626;2023-07-24T06:51:59;13.15;;;11.77;;
26774;SDS011;14362;51.902;7.626;2023-07-24T06:56:01;13.35;;;11.15;;
26774;SDS011;14362;51.902;7.626;2023-07-24T07:00:03;12.23;;;11.02;;
26774;SDS011;14362;51.902;7.626;2023-07-24T07:04:05;15.95;;;11.00;;
26774;SDS011;14362;51.902;7.626;2023-07-24T07:08:07;10.88;;;9.80;;
26774;SDS011;14362;51.902;7.626;2023-07-24T07:12:09;11.90;;;10.07;;
26774;SDS011;14362;51.902;7.626;2023-07-24T07:16:10;11.93;;;10.73;;
26774;SDS011;14362;51.902;7.626;2023-07-24T07:20:12;11.98;;;10.50;;
26774;SDS011;14362;51.902;7.626;2023-07-24T07:24:14;12.48;;;10.45;;
26774;SDS011;14362;51.902;7.626;2023-07-24T07:28:16;12.65;;;11.30;;
26774;SDS011;14362;51.902;7.626;2023-07-24T07:32:19;13.07;;;11.63;;
26774;SDS011;14362;51.902;7.626;2023-07-24T07:36:20;12.50;;;11.35;;
26774;SDS011;14362;51.902;7.626;2023-07-24T07:40:24;13.20;;;11.85;;
26774;SDS011;14362;51.902;7.626;2023-07-24T07:44:26;13.80;;;11.57;;
26774;SDS011;14362;51.902;7.626;2023-07-24T07:48:28;12.38;;;11.18;;
26774;SDS011;14362;51.902;7.626;2023-07-24T07:52:29;12.23;;;11.02;;
26774;SDS011;14362;51.902;7.626;2023-07-24T07:56:32;12.32;;;11.05;;
26774;SDS011;14362;51.902;7.626;2023-07-24T08:00:34;12.02;;;10.70;;
26774;SDS011;14362;51.902;7.626;2023-07-24T08:04:35;11.45;;;10.05;;
26774;SDS011;14362;51.902;7.626;2023-07-24T08:08:37;13.27;;;11.07;;
26774;SDS011;14362;51.902;7.626;2023-07-24T08:12:39;13.57;;;10.88;;
26774;SDS011;14362;51.902;7.626;2023-07-24T08:16:41;9.35;;;8.45;;
26774;SDS011;14362;51.902;7.626;2023-07-24T08:20:42;5.80;;;5.15;;
26774;SDS011;14362;51.902;7.626;2023-07-24T08:24:44;4.40;;;4.00;;
26774;SDS011;14362;51.902;7.626;2023-07-24T08:28:47;4.32;;;3.58;;
26774;SDS011;14362;51.902;7.626;2023-07-24T08:32:48;3.45;;;3.15;;
26774;SDS011;14362;51.902;7.626;2023-07-24T08:36:51;4.43;;;3.40;;
26774;SDS011;14362;51.902;7.626;2023-07-24T08:40:59;3.17;;;2.97;;
26774;SDS011;14362;51.902;7.626;2023-07-24T08:45:03;3.63;;;3.33;;
26774;SDS011;14362;51.902;7.626;2023-07-24T08:49:05;4.13;;;3.73;;
26774;SDS011;14362;51.902;7.626;2023-07-24T08:53:07;4.15;;;3.75;;
26774;SDS011;14362;51.902;7.626;2023-07-24T08:57:09;4.32;;;3.20;;
26774;SDS011;14362;51.902;7.626;2023-07-24T09:01:12;3.92;;;3.40;;
26774;SDS011;14362;51.902;7.626;2023-07-24T09:05:13;3.10;;;2.90;;
26774;SDS011;14362;51.902;7.626;2023-07-24T09:09:16;3.47;;;2.88;;
26774;SDS011;14362;51.902;7.626;2023-07-24T09:13:18;2.60;;;2.40;;
26774;SDS011;14362;51.902;7.626;2023-07-24T09:17:21;2.60;;;2.40;;
26774;SDS011;14362;51.902;7.626;2023-07-24T09:21:28;2.67;;;2.47;;
26774;SDS011;14362;51.902;7.626;2023-07-24T09:25:31;2.95;;;2.17;;
26774;SDS011;14362;51.902;7.626;2023-07-24T09:29:33;2.42;;;1.77;;
26774;SDS011;14362;51.902;7.626;2023-07-24T09:33:38;2.15;;;1.95;;
26774;SDS011;14362;51.902;7.626;2023-07-24T09:37:40;2.03;;;1.73;;
26774;SDS011;14362;51.902;7.626;2023-07-24T09:41:41;2.40;;;2.20;;
26774;SDS011;14362;51.902;7.626;2023-07-24T09:45:44;5.45;;;2.08;;
26774;SDS011;14362;51.902;7.626;2023-07-24T09:49:47;3.40;;;2.22;;
26774;SDS011;14362;51.902;7.626;2023-07-24T09:53:50;3.78;;;2.30;;
26774;SDS011;14362;51.902;7.626;2023-07-24T09:57:56;2.63;;;2.42;;
26774;SDS011;14362;51.902;7.626;2023-07-24T10:01:59;2.88;;;2.63;;
26774;SDS011;14362;51.902;7.626;2023-07-24T10:06:02;2.42;;;2.22;;
26774;SDS011;14362;51.902;7.626;2023-07-24T10:10:05;2.70;;;2.50;;
26774;SDS011;14362;51.902;7.626;2023-07-24T10:14:07;3.20;;;2.90;;
26774;SDS011;14362;51.902;7.626;2023-07-24T10:18:10;3.17;;;2.88;;
26774;SDS011;14362;51.902;7.626;2023-07-24T10:22:17;3.20;;;2.70;;
26774;SDS011;14362;51.902;7.626;2023-07-24T10:26:23;3.13;;;2.40;;
26774;SDS011;14362;51.902;7.626;2023-07-24T10:30:27;3.13;;;2.50;;
26774;SDS011;14362;51.902;7.626;2023-07-24T10:34:36;2.38;;;2.17;;
26774;SDS011;14362;51.902;7.626;2023-07-24T10:38:40;2.45;;;2.25;;
26774;SDS011;14362;51.902;7.626;2023-07-24T10:42:42;2.42;;;2.10;;
26774;SDS011;14362;51.902;7.626;2023-07-24T10:46:44;2.88;;;2.53;;
26774;SDS011;14362;51.902;7.626;2023-07-24T10:50:46;3.05;;;2.55;;
26774;SDS011;14362;51.902;7.626;2023-07-24T10:54:51;3.65;;;2.97;;
26774;SDS011;14362;51.902;7.626;2023-07-24T11:02:54;3.13;;;2.70;;
26774;SDS011;14362;51.902;7.626;2023-07-24T11:06:56;3.08;;;2.45;;
26774;SDS011;14362;51.902;7.626;2023-07-24T11:10:59;2.88;;;2.53;;
26774;SDS011;14362;51.902;7.626;2023-07-24T11:15:01;2.47;;;2.28;;
26774;SDS011;14362;51.902;7.626;2023-07-24T11:19:02;2.30;;;2.10;;
26774;SDS011;14362;51.902;7.626;2023-07-24T11:23:03;2.90;;;2.10;;
26774;SDS011;14362;51.902;7.626;2023-07-24T11:27:09;2.45;;;2.25;;
26774;SDS011;14362;51.902;7.626;2023-07-24T11:31:13;2.85;;;2.40;;
26774;SDS011;14362;51.902;7.626;2023-07-24T11:35:15;2.38;;;2.17;;
26774;SDS011;14362;51.902;7.626;2023-07-24T11:39:21;1.98;;;1.88;;
26774;SDS011;14362;51.902;7.626;2023-07-24T11:43:24;4.03;;;1.90;;
26774;SDS011;14362;51.902;7.626;2023-07-24T11:47:26;2.50;;;2.30;;
26774;SDS011;14362;51.902;7.626;2023-07-24T11:51:27;2.70;;;2.50;;
26774;SDS011;14362;51.902;7.626;2023-07-24T11:55:30;3.70;;;3.40;;
26774;SDS011;14362;51.902;7.626;2023-07-24T11:59:37;4.60;;;4.20;;
26774;SDS011;14362;51.902;7.626;2023-07-24T12:03:39;4.60;;;4.20;;
26774;SDS011;14362;51.902;7.626;2023-07-24T12:07:42;5.13;;;4.70;;
26774;SDS011;14362;51.902;7.626;2023-07-24T12:11:46;5.93;;;5.35;;
26774;SDS011;14362;51.902;7.626;2023-07-24T12:15:50;4.78;;;4.43;;
26774;SDS011;14362;51.902;7.626;2023-07-24T12:19:51;5.50;;;4.70;;
26774;SDS011;14362;51.902;7.626;2023-07-24T12:23:53;5.63;;;5.03;;
26774;SDS011;14362;51.902;7.626;2023-07-24T12:27:54;4.97;;;4.57;;
26774;SDS011;14362;51.902;7.626;2023-07-24T12:31:57;5.43;;;4.75;;
26774;SDS011;14362;51.902;7.626;2023-07-24T12:35:59;6.43;;;5.82;;
26774;SDS011;14362;51.902;7.626;2023-07-24T12:40:01;6.28;;;5.70;;
26774;SDS011;14362;51.902;7.626;2023-07-24T12:44:03;7.07;;;6.38;;
26774;SDS011;14362;51.902;7.626;2023-07-24T12:48:06;6.60;;;6.00;;
26774;SDS011;14362;51.902;7.626;2023-07-24T12:52:08;7.60;;;5.38;;
26774;SDS011;14362;51.902;7.626;2023-07-24T12:56:09;6.22;;;5.22;;
26774;SDS011;14362;51.902;7.626;2023-07-24T13:00:11;2.92;;;2.72;;
26774;SDS011;14362;51.902;7.626;2023-07-24T13:04:14;3.17;;;2.88;;
26774;SDS011;14362;51.902;7.626;2023-07-24T13:08:15;3.08;;;2.80;;
26774;SDS011;14362;51.902;7.626;2023-07-24T13:12:21;3.50;;;3.03;;
26774;SDS011;14362;51.902;7.626;2023-07-24T13:16:23;3.45;;;3.15;;
26774;SDS011;14362;51.902;7.626;2023-07-24T13:20:26;3.63;;;3.20;;
26774;SDS011;14362;51.902;7.626;2023-07-24T13:24:28;5.20;;;3.78;;
26774;SDS011;14362;51.902;7.626;2023-07-24T13:28:29;5.47;;;4.70;;
26774;SDS011;14362;51.902;7.626;2023-07-24T13:32:30;5.82;;;5.18;;
26774;SDS011;14362;51.902;7.626;2023-07-24T13:36:33;4.72;;;4.28;;
26774;SDS011;14362;51.902;7.626;2023-07-24T13:40:35;4.38;;;3.90;;
26774;SDS011;14362;51.902;7.626;2023-07-24T13:44:37;4.28;;;3.97;;
26774;SDS011;14362;51.902;7.626;2023-07-24T13:48:38;4.88;;;4.47;;
26774;SDS011;14362;51.902;7.626;2023-07-24T13:52:41;4.47;;;4.07;;
26774;SDS011;14362;51.902;7.626;2023-07-24T13:56:43;4.57;;;4.18;;
26774;SDS011;14362;51.902;7.626;2023-07-24T14:00:44;4.65;;;4.25;;
26774;SDS011;14362;51.902;7.626;2023-07-24T14:04:45;4.55;;;4.15;;
26774;SDS011;14362;51.902;7.626;2023-07-24T14:08:48;4.72;;;4.38;;
26774;SDS011;14362;51.902;7.626;2023-07-24T14:12:50;5.15;;;4.68;;
26774;SDS011;14362;51.902;7.626;2023-07-24T14:16:51;4.57;;;4.28;;
26774;SDS011;14362;51.902;7.626;2023-07-24T14:20:53;4.72;;;4.35;;
26774;SDS011;14362;51.902;7.626;2023-07-24T14:24:57;4.68;;;4.38;;
26774;SDS011;14362;51.902;7.626;2023-07-24T14:28:59;5.22;;;4.80;;
26774;SDS011;14362;51.902;7.626;2023-07-24T14:33:00;4.82;;;4.43;;
26774;SDS011;14362;51.902;7.626;2023-07-24T14:37:02;4.22;;;3.92;;
26774;SDS011;14362;51.902;7.626;2023-07-24T14:41:05;4.57;;;4.22;;
26774;SDS011;14362;51.902;7.626;2023-07-24T14:45:07;4.75;;;4.35;;
26774;SDS011;14362;51.902;7.626;2023-07-24T14:49:09;4.30;;;4.00;;
26774;SDS011;14362;51.902;7.626;2023-07-24T14:53:10;5.13;;;4.47;;
26774;SDS011;14362;51.902;7.626;2023-07-24T14:57:13;4.70;;;4.20;;
26774;SDS011;14362;51.902;7.626;2023-07-24T15:01:14;3.80;;;3.50;;
26774;SDS011;14362;51.902;7.626;2023-07-24T15:05:16;3.45;;;3.15;;
26774;SDS011;14362;51.902;7.626;2023-07-24T15:09:17;5.43;;;3.80;;
26774;SDS011;14362;51.902;7.626;2023-07-24T15:13:20;3.40;;;3.10;;
26774;SDS011;14362;51.902;7.626;2023-07-24T15:17:21;4.10;;;3.33;;
26774;SDS011;14362;51.902;7.626;2023-07-24T15:21:23;3.25;;;2.85;;
26774;SDS011;14362;51.902;7.626;2023-07-24T15:25:24;5.22;;;3.30;;
26774;SDS011;14362;51.902;7.626;2023-07-24T15:29:27;3.33;;;3.03;;
26774;SDS011;14362;51.902;7.626;2023-07-24T15:33:28;5.72;;;2.90;;
26774;SDS011;14362;51.902;7.626;2023-07-24T15:37:30;3.28;;;2.78;;
26774;SDS011;14362;51.902;7.626;2023-07-24T15:41:31;3.47;;;2.75;;
26774;SDS011;14362;51.902;7.626;2023-07-24T15:45:35;2.80;;;2.60;;
26774;SDS011;14362;51.902;7.626;2023-07-24T15:49:36;2.90;;;2.70;;
26774;SDS011;14362;51.902;7.626;2023-07-24T15:53:38;4.30;;;2.85;;
26774;SDS011;14362;51.902;7.626;2023-07-24T15:57:39;3.15;;;2.85;;
26774;SDS011;14362;51.902;7.626;2023-07-24T16:01:42;3.38;;;2.80;;
26774;SDS011;14362;51.902;7.626;2023-07-24T16:05:44;4.40;;;2.88;;
26774;SDS011;14362;51.902;7.626;2023-07-24T16:09:45;3.85;;;3.40;;
26774;SDS011;14362;51.902;7.626;2023-07-24T16:13:46;4.35;;;3.30;;
26774;SDS011;14362;51.902;7.626;2023-07-24T16:17:49;5.07;;;3.30;;
26774;SDS011;14362;51.902;7.626;2023-07-24T16:21:51;5.40;;;3.80;;
26774;SDS011;14362;51.902;7.626;2023-07-24T16:25:53;4.22;;;3.83;;
26774;SDS011;14362;51.902;7.626;2023-07-24T16:29:55;4.03;;;3.60;;
26774;SDS011;14362;51.902;7.626;2023-07-24T16:33:58;4.20;;;3.80;;
26774;SDS011;14362;51.902;7.626;2023-07-24T16:37:59;3.83;;;3.53;;
26774;SDS011;14362;51.902;7.626;2023-07-24T16:42:01;5.57;;;3.95;;
26774;SDS011;14362;51.902;7.626;2023-07-24T16:46:02;6.93;;;5.10;;
26774;SDS011;14362;51.902;7.626;2023-07-24T16:50:06;7.25;;;6.55;;
26774;SDS011;14362;51.902;7.626;2023-07-24T16:54:08;7.70;;;7.00;;
26774;SDS011;14362;51.902;7.626;2023-07-24T16:58:10;7.60;;;6.80;;
26774;SDS011;14362;51.902;7.626;2023-07-24T17:02:12;9.15;;;7.22;;
26774;SDS011;14362;51.902;7.626;2023-07-24T17:06:15;8.80;;;8.00;;
26774;SDS011;14362;51.902;7.626;2023-07-24T17:10:17;8.98;;;7.70;;
26774;SDS011;14362;51.902;7.626;2023-07-24T17:14:18;10.32;;;8.85;;
26774;SDS011;14362;51.902;7.626;2023-07-24T17:18:20;9.52;;;8.63;;
26774;SDS011;14362;51.902;7.626;2023-07-24T17:22:23;9.98;;;8.98;;
26774;SDS011;14362;51.902;7.626;2023-07-24T17:26:24;9.23;;;8.30;;
26774;SDS011;14362;51.902;7.626;2023-07-24T17:30:31;12.00;;;9.55;;
26774;SDS011;14362;51.902;7.626;2023-07-24T17:34:32;9.55;;;8.65;;
26774;SDS011;14362;51.902;7.626;2023-07-24T17:38:35;5.80;;;5.20;;
26774;SDS011;14362;51.902;7.626;2023-07-24T17:42:36;5.72;;;3.85;;
26774;SDS011;14362;51.902;7.626;2023-07-24T17:46:38;4.57;;;3.80;;
26774;SDS011;14362;51.902;7.626;2023-07-24T17:50:39;5.80;;;3.88;;
26774;SDS011;14362;51.902;7.626;2023-07-24T17:54:42;3.88;;;3.47;;
26774;SDS011;14362;51.902;7.626;2023-07-24T17:58:43;5.40;;;3.97;;
26774;SDS011;14362;51.902;7.626;2023-07-24T18:02:45;4.88;;;3.97;;
26774;SDS011;14362;51.902;7.626;2023-07-24T18:06:46;4.38;;;3.97;;
26774;SDS011;14362;51.902;7.626;2023-07-24T18:10:49;4.82;;;4.10;;
26774;SDS011;14362;51.902;7.626;2023-07-24T18:14:50;4.53;;;4.10;;
26774;SDS011;14362;51.902;7.626;2023-07-24T18:18:52;4.38;;;4.00;;
26774;SDS011;14362;51.902;7.626;2023-07-24T18:22:55;4.00;;;3.55;;
26774;SDS011;14362;51.902;7.626;2023-07-24T18:26:58;4.47;;;4.07;;
26774;SDS011;14362;51.902;7.626;2023-07-24T18:30:59;4.63;;;4.20;;
26774;SDS011;14362;51.902;7.626;2023-07-24T18:35:00;4.55;;;4.13;;
26774;SDS011;14362;51.902;7.626;2023-07-24T18:39:02;5.65;;;3.97;;
26774;SDS011;14362;51.902;7.626;2023-07-24T18:43:05;5.18;;;4.40;;
26774;SDS011;14362;51.902;7.626;2023-07-24T18:47:07;7.78;;;4.63;;
26774;SDS011;14362;51.902;7.626;2023-07-24T18:51:09;5.60;;;5.10;;
26774;SDS011;14362;51.902;7.626;2023-07-24T18:55:10;4.75;;;4.35;;
26774;SDS011;14362;51.902;7.626;2023-07-24T18:59:13;4.72;;;4.28;;
26774;SDS011;14362;51.902;7.626;2023-07-24T19:03:15;4.93;;;4.28;;
26774;SDS011;14362;51.902;7.626;2023-07-24T19:07:16;6.32;;;4.40;;
26774;SDS011;14362;51.902;7.626;2023-07-24T19:11:17;5.20;;;4.00;;
26774;SDS011;14362;51.902;7.626;2023-07-24T19:15:20;5.68;;;3.88;;
26774;SDS011;14362;51.902;7.626;2023-07-24T19:19:22;3.85;;;3.47;;
26774;SDS011;14362;51.902;7.626;2023-07-24T19:23:23;3.95;;;3.60;;
26774;SDS011;14362;51.902;7.626;2023-07-24T19:27:25;4.47;;;4.07;;
26774;SDS011;14362;51.902;7.626;2023-07-24T19:31:27;4.63;;;3.80;;
26774;SDS011;14362;51.902;7.626;2023-07-24T19:35:29;8.75;;;4.22;;
26774;SDS011;14362;51.902;7.626;2023-07-24T19:39:30;3.95;;;3.50;;
26774;SDS011;14362;51.902;7.626;2023-07-24T19:43:32;4.93;;;4.43;;
26774;SDS011;14362;51.902;7.626;2023-07-24T19:47:35;4.38;;;3.97;;
26774;SDS011;14362;51.902;7.626;2023-07-24T19:51:36;4.57;;;4.03;;
26774;SDS011;14362;51.902;7.626;2023-07-24T19:55:38;5.10;;;4.60;;
26774;SDS011;14362;51.902;7.626;2023-07-24T19:59:39;5.65;;;5.00;;
26774;SDS011;14362;51.902;7.626;2023-07-24T20:03:42;5.53;;;4.25;;
26774;SDS011;14362;51.902;7.626;2023-07-24T20:07:43;6.07;;;4.25;;
26774;SDS011;14362;51.902;7.626;2023-07-24T20:11:46;7.35;;;3.53;;
26774;SDS011;14362;51.902;7.626;2023-07-24T20:15:47;6.57;;;3.53;;
26774;SDS011;14362;51.902;7.626;2023-07-24T20:19:50;6.60;;;2.80;;
26774;SDS011;14362;51.902;7.626;2023-07-24T20:23:51;5.03;;;2.85;;
26774;SDS011;14362;51.902;7.626;2023-07-24T20:27:53;4.97;;;2.10;;
26774;SDS011;14362;51.902;7.626;2023-07-24T20:31:54;3.72;;;2.10;;
26774;SDS011;14362;51.902;7.626;2023-07-24T20:35:57;7.10;;;2.83;;
26774;SDS011;14362;51.902;7.626;2023-07-24T20:39:58;3.63;;;2.08;;
26774;SDS011;14362;51.902;7.626;2023-07-24T20:44:00;7.63;;;2.20;;
26774;SDS011;14362;51.902;7.626;2023-07-24T20:48:01;6.15;;;2.15;;
26774;SDS011;14362;51.902;7.626;2023-07-24T20:52:05;3.72;;;1.77;;
26774;SDS011;14362;51.902;7.626;2023-07-24T20:56:06;6.93;;;2.50;;
26774;SDS011;14362;51.902;7.626;2023-07-24T21:00:08;4.78;;;2.65;;
26774;SDS011;14362;51.902;7.626;2023-07-24T21:04:10;4.65;;;2.00;;
26774;SDS011;14362;51.902;7.626;2023-07-24T21:08:13;4.93;;;1.98;;
26774;SDS011;14362;51.902;7.626;2023-07-24T21:12:14;8.48;;;2.10;;
26774;SDS011;14362;51.902;7.626;2023-07-24T21:16:16;4.55;;;1.67;;
26774;SDS011;14362;51.902;7.626;2023-07-24T21:20:17;7.43;;;2.30;;
26774;SDS011;14362;51.902;7.626;2023-07-24T21:24:20;3.03;;;1.75;;
26774;SDS011;14362;51.902;7.626;2023-07-24T21:28:22;4.57;;;1.88;;
26774;SDS011;14362;51.902;7.626;2023-07-24T21:32:24;4.72;;;1.90;;
26774;SDS011;14362;51.902;7.626;2023-07-24T21:36:25;4.03;;;2.08;;
26774;SDS011;14362;51.902;7.626;2023-07-24T21:40:28;3.58;;;1.85;;
26774;SDS011;14362;51.902;7.626;2023-07-24T21:44:29;5.70;;;2.55;;
26774;SDS011;14362;51.902;7.626;2023-07-24T21:48:31;3.97;;;2.28;;
26774;SDS011;14362;51.902;7.626;2023-07-24T21:52:32;7.32;;;2.10;;
26774;SDS011;14362;51.902;7.626;2023-07-24T21:56:35;3.63;;;2.00;;
26774;SDS011;14362;51.902;7.626;2023-07-24T22:00:37;5.07;;;2.60;;
26774;SDS011;14362;51.902;7.626;2023-07-24T22:04:39;5.88;;;2.40;;
26774;SDS011;14362;51.902;7.626;2023-07-24T22:08:40;3.22;;;2.10;;
26774;SDS011;14362;51.902;7.626;2023-07-24T22:12:43;2.40;;;1.92;;
26774;SDS011;14362;51.902;7.626;2023-07-24T22:16:44;4.45;;;2.20;;
26774;SDS011;14362;51.902;7.626;2023-07-24T22:20:46;4.22;;;2.58;;
26774;SDS011;14362;51.902;7.626;2023-07-24T22:24:47;3.60;;;2.25;;
26774;SDS011;14362;51.902;7.626;2023-07-24T22:28:50;4.05;;;2.03;;
26774;SDS011;14362;51.902;7.626;2023-07-24T22:32:52;6.70;;;2.08;;
26774;SDS011;14362;51.902;7.626;2023-07-24T22:36:53;4.20;;;2.30;;
26774;SDS011;14362;51.902;7.626;2023-07-24T22:40:55;3.88;;;2.25;;
26774;SDS011;14362;51.902;7.626;2023-07-24T22:44:57;3.45;;;2.03;;
26774;SDS011;14362;51.902;7.626;2023-07-24T22:48:59;3.92;;;2.10;;
26774;SDS011;14362;51.902;7.626;2023-07-24T22:53:00;5.35;;;2.50;;
26774;SDS011;14362;51.902;7.626;2023-07-24T22:57:02;8.20;;;2.63;;
26774;SDS011;14362;51.902;7.626;2023-07-24T23:01:05;5.60;;;2.28;;
26774;SDS011;14362;51.902;7.626;2023-07-24T23:05:06;5.43;;;2.60;;
26774;SDS011;14362;51.902;7.626;2023-07-24T23:09:08;4.63;;;2.20;;
26774;SDS011;14362;51.902;7.626;2023-07-24T23:13:10;8.05;;;2.80;;
26774;SDS011;14362;51.902;7.626;2023-07-24T23:17:12;4.15;;;2.67;;
26774;SDS011;14362;51.902;7.626;2023-07-24T23:21:14;5.68;;;2.35;;
26774;SDS011;14362;51.902;7.626;2023-07-24T23:25:15;5.57;;;2.50;;
26774;SDS011;14362;51.902;7.626;2023-07-24T23:29:17;3.65;;;2.17;;
26774;SDS011;14362;51.902;7.626;2023-07-24T23:33:19;5.38;;;2.40;;
26774;SDS011;14362;51.902;7.626;2023-07-24T23:37:21;7.13;;;2.95;;
26774;SDS011;14362;51.902;7.626;2023-07-24T23:41:23;5.72;;;2.78;;
26774;SDS011;14362;51.902;7.626;2023-07-24T23:45:30;3.20;;;2.45;;
26774;SDS011;14362;51.902;7.626;2023-07-24T23:49:33;5.65;;;2.42;;
26774;SDS011;14362;51.902;7.626;2023-07-24T23:53:34;4.65;;;2.67;;
26774;SDS011;14362;51.902;7.626;2023-07-24T23:57:36;5.30;;;2.75;;
